Time;durP1;ratioP1;P1;durP2;ratioP2;P2;SDS_P1;SDS_P2;PMS_P1;PMS_P2;Temp;Humidity;BMP_temperature;BMP_pressure;BME280_temperature;BME280_humidity;BME280_pressure;Samples;Min_cycle;Max_cycle;Signal;HPM_P1;HPM_P2
2021/06/08 00:02:22;;;;;;;0.00;0.00;;;17.90;99.90;;;;;;5073735;28;20127;-59
2021/06/08 00:04:47;;;;;;;0.10;0.10;;;17.90;99.90;;;;;;5073278;28;20099;-59
2021/06/08 00:07:13;;;;;;;0.10;0.10;;;17.90;99.90;;;;;;5064537;28;20029;-59
2021/06/08 00:09:39;;;;;;;0.03;0.03;;;17.90;99.90;;;;;;5073842;28;20112;-59
2021/06/08 00:12:05;;;;;;;0.00;0.00;;;17.90;99.90;;;;;;5073315;28;20507;-59
2021/06/08 00:14:30;;;;;;;0.10;0.10;;;17.90;99.90;;;;;;5073689;28;21934;-59
2021/06/08 00:16:58;;;;;;;0.00;0.00;;;17.90;99.90;;;;;;5073101;28;20447;-60
2021/06/08 00:19:26;;;;;;;0.10;0.10;;;17.90;99.90;;;;;;5090484;27;20427;-59
2021/06/08 00:21:52;;;;;;;0.00;0.00;;;17.90;99.90;;;;;;5072762;28;20040;-59
2021/06/08 00:24:17;;;;;;;0.00;0.00;;;17.90;99.90;;;;;;5073959;28;20410;-60
2021/06/08 00:26:45;;;;;;;0.10;0.10;;;17.90;99.90;;;;;;5053450;28;20056;-59
2021/06/08 00:29:11;;;;;;;0.00;0.00;;;17.90;99.90;;;;;;5072968;28;20118;-58
2021/06/08 00:31:37;;;;;;;0.00;0.00;;;17.90;99.90;;;;;;5074081;28;20039;-59
2021/06/08 00:34:02;;;;;;;0.00;0.00;;;18.00;99.90;;;;;;5073177;28;20048;-60
2021/06/08 00:36:28;;;;;;;0.10;0.10;;;18.00;99.90;;;;;;5072911;28;20050;-59
2021/06/08 00:38:56;;;;;;;0.10;0.10;;;18.00;99.90;;;;;;5073258;28;20149;-60
2021/06/08 00:41:42;;;;;;;0.00;0.00;;;18.00;99.90;;;;;;5072362;28;20047;-59
2021/06/08 00:44:16;;;;;;;0.08;0.08;;;18.00;99.90;;;;;;5072336;28;20040;-59
2021/06/08 00:46:44;;;;;;;0.00;0.00;;;18.00;99.90;;;;;;5074773;28;20028;-59
2021/06/08 00:49:10;;;;;;;0.10;0.10;;;18.00;99.90;;;;;;5075042;28;20028;-61
2021/06/08 00:51:36;;;;;;;0.10;0.10;;;18.00;99.90;;;;;;5068884;28;20041;-59
2021/06/08 00:54:20;;;;;;;0.00;0.00;;;18.00;99.90;;;;;;5073796;28;20032;-61
2021/06/08 00:56:46;;;;;;;0.05;0.05;;;18.00;99.90;;;;;;5057719;28;20441;-59
2021/06/08 00:59:13;;;;;;;0.10;0.10;;;18.00;99.90;;;;;;5073418;28;20040;-59
2021/06/08 01:01:39;;;;;;;0.00;0.00;;;17.90;99.90;;;;;;5071953;28;20063;-59
2021/06/08 01:04:06;;;;;;;0.00;0.00;;;17.90;99.90;;;;;;5071760;28;20031;-61
2021/06/08 01:06:36;;;;;;;0.10;0.10;;;18.00;99.90;;;;;;5072782;28;20024;-59
2021/06/08 01:09:04;;;;;;;0.10;0.10;;;18.00;99.90;;;;;;5071611;28;20032;-59
2021/06/08 01:11:33;;;;;;;0.10;0.10;;;18.00;99.90;;;;;;5072624;28;20036;-59
2021/06/08 01:13:59;;;;;;;0.00;0.00;;;18.00;99.90;;;;;;5072500;28;20044;-59
2021/06/08 01:16:24;;;;;;;0.00;0.00;;;18.00;99.90;;;;;;5062699;28;20096;-59
2021/06/08 01:18:50;;;;;;;0.03;0.03;;;18.00;99.90;;;;;;5055086;28;20110;-59
2021/06/08 01:21:17;;;;;;;0.10;0.10;;;17.90;99.90;;;;;;5072532;28;20063;-59
2021/06/08 01:23:44;;;;;;;0.10;0.10;;;17.90;99.90;;;;;;5072087;28;20040;-60
2021/06/08 01:26:13;;;;;;;0.10;0.10;;;17.90;99.90;;;;;;5071461;28;20036;-59
2021/06/08 01:28:41;;;;;;;0.00;0.00;;;17.80;99.90;;;;;;5071171;28;20460;-59
2021/06/08 01:31:14;;;;;;;0.10;0.10;;;17.80;99.90;;;;;;5072196;28;20067;-61
2021/06/08 01:33:43;;;;;;;0.10;0.10;;;17.80;99.90;;;;;;5058193;28;20127;-59
2021/06/08 01:36:12;;;;;;;0.00;0.00;;;17.80;99.90;;;;;;5051818;28;20586;-59
2021/06/08 01:38:40;;;;;;;0.10;0.10;;;17.80;99.90;;;;;;5086814;27;20028;-59
2021/06/08 01:41:07;;;;;;;0.10;0.10;;;17.80;99.90;;;;;;5088347;27;20039;-59
2021/06/08 01:43:33;;;;;;;0.10;0.10;;;17.70;99.90;;;;;;5058111;28;20029;-59
2021/06/08 01:46:01;;;;;;;0.10;0.10;;;17.70;99.90;;;;;;5072608;28;20044;-59
2021/06/08 01:48:27;;;;;;;0.00;0.00;;;17.70;99.90;;;;;;5058471;28;20028;-60
2021/06/08 01:50:59;;;;;;;0.10;0.10;;;17.70;99.90;;;;;;5072430;28;20081;-59
2021/06/08 01:54:01;;;;;;;0.10;0.10;;;17.70;99.90;;;;;;5050903;28;20132;-59
2021/06/08 01:56:34;;;;;;;0.00;0.00;;;17.60;99.90;;;;;;5072775;28;20035;-60
2021/06/08 01:59:12;;;;;;;0.00;0.00;;;17.50;99.90;;;;;;5071746;28;20104;-59
2021/06/08 02:01:50;;;;;;;0.10;0.10;;;17.40;99.90;;;;;;5071462;28;20752;-59
2021/06/08 02:04:48;;;;;;;0.00;0.00;;;17.40;99.90;;;;;;5058935;28;20036;-59
2021/06/08 02:07:46;;;;;;;0.00;0.00;;;17.40;99.90;;;;;;5072670;28;20033;-59
2021/06/08 02:10:53;;;;;;;0.08;0.08;;;17.30;99.90;;;;;;5088023;28;20443;-59
2021/06/08 02:13:30;;;;;;;0.00;0.00;;;17.30;99.90;;;;;;5070365;28;20028;-59
2021/06/08 02:16:21;;;;;;;0.10;0.10;;;17.30;99.90;;;;;;5071624;28;20032;-59
2021/06/08 02:18:49;;;;;;;0.00;0.00;;;17.30;99.90;;;;;;5071538;28;20024;-59
2021/06/08 02:21:21;;;;;;;0.00;0.00;;;17.30;99.90;;;;;;5071503;28;20036;-59
2021/06/08 02:23:52;;;;;;;0.00;0.00;;;17.30;99.90;;;;;;5071697;28;20024;-59
2021/06/08 02:26:22;;;;;;;0.10;0.10;;;17.30;99.90;;;;;;5088467;28;20155;-59
2021/06/08 02:28:49;;;;;;;0.10;0.10;;;17.40;99.90;;;;;;5070278;28;20086;-59
2021/06/08 02:31:17;;;;;;;0.00;0.00;;;17.40;99.90;;;;;;5072457;28;20535;-59
2021/06/08 02:33:47;;;;;;;0.05;0.05;;;17.40;99.90;;;;;;5070371;28;20028;-60
2021/06/08 02:36:13;;;;;;;0.10;0.10;;;17.40;99.90;;;;;;5070155;28;20036;-59
2021/06/08 02:38:42;;;;;;;0.00;0.00;;;17.40;99.90;;;;;;5072012;28;20084;-59
2021/06/08 02:41:08;;;;;;;0.00;0.00;;;17.50;99.90;;;;;;5071071;28;20063;-59
2021/06/08 02:43:39;;;;;;;0.05;0.05;;;17.50;99.90;;;;;;5070362;28;20500;-60
2021/06/08 02:46:07;;;;;;;0.00;0.00;;;17.50;99.90;;;;;;5072458;28;20464;-59
2021/06/08 02:48:34;;;;;;;0.10;0.10;;;17.50;99.90;;;;;;5069481;28;20073;-60
2021/06/08 02:51:03;;;;;;;0.10;0.10;;;17.50;99.90;;;;;;5072633;28;20024;-59
2021/06/08 02:53:29;;;;;;;0.00;0.00;;;17.60;99.90;;;;;;5074171;28;20067;-59
2021/06/08 02:55:55;;;;;;;0.10;0.10;;;17.50;99.90;;;;;;5073650;28;20522;-59
2021/06/08 02:58:22;;;;;;;0.10;0.10;;;17.50;99.90;;;;;;5074423;28;20024;-59
2021/06/08 03:00:49;;;;;;;0.10;0.10;;;17.50;99.90;;;;;;5090646;27;20139;-59
2021/06/08 03:03:24;;;;;;;0.00;0.00;;;17.50;99.90;;;;;;5075630;28;20040;-59
2021/06/08 03:06:08;;;;;;;0.00;0.00;;;17.50;99.90;;;;;;5073988;28;20029;-59
2021/06/08 03:08:48;;;;;;;0.00;0.00;;;17.50;99.90;;;;;;5074768;28;20162;-59
2021/06/08 03:11:23;;;;;;;0.00;0.00;;;17.50;99.90;;;;;;5061077;28;20415;-59
2021/06/08 03:13:53;;;;;;;0.08;0.08;;;17.50;99.90;;;;;;5065574;28;20696;-59
2021/06/08 03:16:21;;;;;;;0.00;0.00;;;17.40;99.90;;;;;;5074558;28;20027;-59
2021/06/08 03:18:53;;;;;;;0.00;0.00;;;17.40;99.90;;;;;;5075801;28;20037;-59
2021/06/08 03:21:31;;;;;;;0.10;0.10;;;17.40;99.90;;;;;;5075602;28;20054;-59
2021/06/08 03:24:01;;;;;;;0.10;0.10;;;17.40;99.90;;;;;;5076021;28;20040;-59
2021/06/08 03:26:31;;;;;;;0.00;0.00;;;17.40;99.90;;;;;;5077109;28;20043;-59
2021/06/08 03:29:04;;;;;;;0.00;0.00;;;17.50;99.90;;;;;;5076318;28;20035;-59
2021/06/08 03:31:29;;;;;;;0.00;0.00;;;17.40;99.90;;;;;;5075194;28;20032;-59
2021/06/08 03:33:56;;;;;;;0.00;0.00;;;17.40;99.90;;;;;;5076107;28;21576;-59
2021/06/08 03:36:23;;;;;;;0.10;0.10;;;17.40;99.90;;;;;;5076131;28;20031;-59
2021/06/08 03:38:51;;;;;;;0.00;0.00;;;17.40;99.90;;;;;;5073740;28;20079;-59
2021/06/08 03:41:17;;;;;;;0.10;0.10;;;17.40;99.90;;;;;;5074426;28;20105;-59
2021/06/08 03:43:44;;;;;;;0.08;0.08;;;17.30;99.90;;;;;;5089292;27;20023;-59
2021/06/08 03:46:12;;;;;;;0.10;0.10;;;17.30;99.90;;;;;;5074981;28;20025;-59
2021/06/08 03:48:38;;;;;;;0.10;0.10;;;17.30;99.90;;;;;;5073603;28;20039;-59
2021/06/08 03:51:06;;;;;;;0.10;0.10;;;17.20;99.90;;;;;;5073189;28;20119;-59
2021/06/08 03:53:32;;;;;;;0.03;0.03;;;17.30;99.90;;;;;;5073768;28;20539;-59
2021/06/08 03:55:58;;;;;;;0.10;0.10;;;17.30;99.90;;;;;;5073564;28;20033;-59
2021/06/08 03:58:24;;;;;;;0.00;0.00;;;17.30;99.90;;;;;;5073576;28;20036;-59
2021/06/08 04:00:53;;;;;;;0.03;0.03;;;17.30;99.90;;;;;;5055576;28;20036;-59
2021/06/08 04:03:20;;;;;;;0.00;0.00;;;17.30;99.90;;;;;;5073451;28;20035;-59
2021/06/08 04:05:48;;;;;;;0.10;0.10;;;17.30;99.90;;;;;;5074266;28;20047;-59
2021/06/08 04:08:14;;;;;;;0.00;0.00;;;17.30;99.90;;;;;;5072862;28;20137;-59
2021/06/08 04:10:41;;;;;;;0.00;0.00;;;17.30;99.90;;;;;;5073216;28;20516;-59
2021/06/08 04:13:06;;;;;;;0.00;0.00;;;17.30;99.90;;;;;;5073169;28;20092;-59
2021/06/08 04:15:34;;;;;;;0.10;0.10;;;17.40;99.90;;;;;;5058599;28;20040;-59
2021/06/08 04:18:03;;;;;;;0.10;0.10;;;17.50;99.90;;;;;;5073389;28;20046;-59
2021/06/08 04:20:32;;;;;;;0.10;0.10;;;17.50;99.90;;;;;;5072798;28;20031;-59
2021/06/08 04:23:00;;;;;;;0.00;0.00;;;17.50;99.90;;;;;;5072139;28;20028;-59
2021/06/08 04:25:29;;;;;;;0.10;0.10;;;17.50;99.90;;;;;;5059211;28;20032;-59
2021/06/08 04:27:56;;;;;;;0.10;0.10;;;17.50;99.90;;;;;;5052934;28;20032;-58
2021/06/08 04:30:24;;;;;;;0.00;0.00;;;17.50;99.90;;;;;;5089798;27;20052;-58
2021/06/08 04:32:50;;;;;;;0.15;0.15;;;17.50;99.90;;;;;;5073495;28;20033;-58
2021/06/08 04:35:17;;;;;;;0.10;0.10;;;17.50;99.90;;;;;;5072110;28;20035;-58
2021/06/08 04:37:46;;;;;;;0.10;0.10;;;17.60;99.90;;;;;;5073466;28;20028;-58
2021/06/08 04:40:16;;;;;;;0.00;0.00;;;17.60;99.90;;;;;;5088696;27;20037;-58
2021/06/08 04:42:48;;;;;;;0.00;0.00;;;17.60;99.90;;;;;;5072126;28;20040;-59
2021/06/08 04:45:18;;;;;;;0.00;0.00;;;17.60;99.90;;;;;;5071849;28;20024;-58
2021/06/08 04:47:44;;;;;;;0.00;0.00;;;17.60;99.90;;;;;;5072720;28;20093;-58
2021/06/08 04:50:17;;;;;;;0.10;0.10;;;17.60;99.90;;;;;;5072200;28;20028;-58
2021/06/08 04:52:45;;;;;;;0.10;0.10;;;17.60;99.90;;;;;;5072605;28;20032;-58
2021/06/08 04:55:14;;;;;;;0.10;0.10;;;17.60;99.90;;;;;;5072681;28;20085;-58
2021/06/08 04:57:42;;;;;;;0.00;0.00;;;17.60;99.90;;;;;;5053787;28;20456;-58
2021/06/08 05:00:12;;;;;;;0.10;0.10;;;17.60;99.90;;;;;;5074392;28;20044;-58
2021/06/08 05:02:45;;;;;;;0.10;0.10;;;17.60;99.90;;;;;;5074668;28;20035;-58
2021/06/08 05:05:27;;;;;;;0.10;0.10;;;17.60;99.90;;;;;;5072947;28;20020;-62
2021/06/08 05:08:15;;;;;;;0.10;0.10;;;17.60;99.90;;;;;;5072899;28;20032;-58
2021/06/08 05:10:51;;;;;;;0.10;0.10;;;17.60;99.90;;;;;;5072743;28;20537;-58
2021/06/08 05:13:18;;;;;;;0.10;0.10;;;17.70;99.90;;;;;;5053117;28;20030;-59
2021/06/08 05:15:48;;;;;;;0.10;0.10;;;17.70;99.90;;;;;;5073162;28;20028;-58
2021/06/08 05:18:15;;;;;;;0.10;0.10;;;17.70;99.90;;;;;;5088212;27;20028;-59
2021/06/08 05:20:45;;;;;;;0.00;0.00;;;17.80;99.90;;;;;;5071838;28;20027;-58
2021/06/08 05:23:14;;;;;;;0.08;0.08;;;17.90;99.90;;;;;;5072066;28;20028;-58
2021/06/08 05:25:42;;;;;;;0.10;0.10;;;17.90;99.90;;;;;;5054451;28;20059;-58
2021/06/08 05:28:13;;;;;;;0.10;0.10;;;17.80;99.90;;;;;;5062587;28;20093;-57
2021/06/08 05:30:39;;;;;;;0.08;0.08;;;17.80;99.90;;;;;;5072817;28;20020;-58
2021/06/08 05:33:05;;;;;;;0.10;0.10;;;17.80;99.90;;;;;;5072244;28;20055;-58
2021/06/08 05:35:31;;;;;;;0.10;0.10;;;17.80;99.90;;;;;;5072333;28;20409;-58
2021/06/08 05:38:09;;;;;;;0.10;0.10;;;17.80;99.90;;;;;;5062901;28;20024;-58
2021/06/08 05:40:37;;;;;;;0.10;0.10;;;17.90;99.90;;;;;;5071368;28;20032;-59
2021/06/08 05:43:03;;;;;;;0.10;0.10;;;18.00;99.90;;;;;;5071884;28;20081;-58
2021/06/08 05:45:35;;;;;;;0.10;0.10;;;18.10;99.90;;;;;;5071574;28;20063;-58
2021/06/08 05:48:01;;;;;;;0.10;0.10;;;18.20;99.90;;;;;;5071745;28;21999;-58
2021/06/08 05:50:29;;;;;;;0.10;0.10;;;18.30;99.90;;;;;;5053776;28;20490;-58
2021/06/08 05:52:55;;;;;;;0.10;0.10;;;18.30;99.90;;;;;;5057658;28;20040;-58
2021/06/08 05:55:25;;;;;;;0.10;0.10;;;18.40;99.90;;;;;;5086117;28;20039;-58
2021/06/08 05:57:55;;;;;;;0.10;0.10;;;18.30;99.90;;;;;;5087633;27;20360;-58
2021/06/08 06:00:24;;;;;;;0.10;0.10;;;18.30;99.90;;;;;;5070543;28;20152;-57
2021/06/08 06:02:51;;;;;;;0.00;0.00;;;18.40;99.90;;;;;;5070876;28;20105;-58
2021/06/08 06:05:17;;;;;;;0.00;0.00;;;18.40;99.90;;;;;;5057813;28;20587;-59
2021/06/08 06:07:45;;;;;;;0.00;0.00;;;18.40;99.90;;;;;;5072169;28;20048;-58
2021/06/08 06:10:11;;;;;;;0.03;0.03;;;18.40;99.90;;;;;;5056918;28;20833;-59
2021/06/08 06:12:39;;;;;;;0.05;0.05;;;18.40;99.90;;;;;;5053222;28;20044;-58
2021/06/08 06:15:11;;;;;;;0.00;0.00;;;18.40;99.90;;;;;;5071348;28;20028;-58
2021/06/08 06:17:38;;;;;;;;;;;18.40;99.90;;;;;;5072470;28;20032;-59
2021/06/08 06:20:13;;;;;;;0.10;0.10;;;18.40;99.90;;;;;;5071142;28;20352;-58
2021/06/08 06:22:43;;;;;;;0.43;0.43;;;18.40;99.90;;;;;;5071156;28;20481;-59
2021/06/08 06:25:13;;;;;;;0.00;0.00;;;18.50;99.90;;;;;;5070989;28;20028;-58
2021/06/08 06:27:42;;;;;;;0.10;0.10;;;18.50;99.90;;;;;;5061628;28;20035;-58
2021/06/08 06:30:13;;;;;;;0.10;0.10;;;18.60;99.90;;;;;;5075343;28;20154;-58
2021/06/08 06:32:39;;;;;;;0.00;0.00;;;18.60;99.90;;;;;;5075363;28;20028;-58
2021/06/08 06:35:06;;;;;;;0.00;0.00;;;18.70;99.90;;;;;;5075440;28;20503;-58
2021/06/08 06:37:36;;;;;;;0.10;0.10;;;18.70;99.90;;;;;;5074757;28;20036;-58
2021/06/08 06:40:12;;;;;;;0.00;0.00;;;18.70;99.90;;;;;;5092483;27;20028;-58
2021/06/08 06:42:48;;;;;;;0.00;0.00;;;18.80;99.90;;;;;;5075045;28;20123;-58
2021/06/08 06:45:20;;;;;;;0.10;0.10;;;19.00;99.90;;;;;;5075177;28;20139;-58
2021/06/08 06:47:49;;;;;;;0.10;0.10;;;19.10;99.90;;;;;;5074682;28;20036;-58
2021/06/08 06:50:16;;;;;;;0.10;0.10;;;19.30;99.90;;;;;;5074769;28;20032;-57
2021/06/08 06:52:55;;;;;;;0.00;0.00;;;19.30;99.90;;;;;;5075188;28;21934;-58
2021/06/08 06:55:22;;;;;;;0.10;0.10;;;19.50;99.90;;;;;;5074208;28;20020;-58
2021/06/08 06:57:48;;;;;;;0.00;0.00;;;19.60;99.90;;;;;;5075364;28;20047;-58
2021/06/08 07:00:17;;;;;;;0.10;0.10;;;19.60;99.90;;;;;;5058217;28;20075;-58
2021/06/08 07:02:45;;;;;;;0.00;0.00;;;19.60;99.90;;;;;;5074681;28;20039;-58
2021/06/08 07:05:13;;;;;;;0.08;0.08;;;19.60;99.90;;;;;;5074678;28;20511;-58
2021/06/08 07:07:42;;;;;;;0.10;0.10;;;19.70;99.90;;;;;;5064214;28;20017;-58
2021/06/08 07:10:12;;;;;;;0.10;0.10;;;19.80;99.90;;;;;;5065651;28;20039;-58
2021/06/08 07:12:44;;;;;;;0.00;0.00;;;20.00;99.90;;;;;;5064361;28;20119;-57
2021/06/08 07:15:13;;;;;;;0.00;0.00;;;20.10;99.90;;;;;;5071242;28;20708;-58
2021/06/08 07:17:41;;;;;;;0.00;0.00;;;20.20;99.90;;;;;;5074308;28;20064;-58
2021/06/08 07:20:10;;;;;;;0.00;0.00;;;20.20;99.90;;;;;;5056160;28;20036;-58
2021/06/08 07:22:38;;;;;;;0.00;0.00;;;20.30;99.90;;;;;;5060873;28;20385;-58
2021/06/08 07:25:06;;;;;;;0.00;0.00;;;20.50;99.90;;;;;;5054973;28;20042;-58
2021/06/08 07:27:34;;;;;;;0.00;0.00;;;20.50;99.90;;;;;;5075429;28;20601;-58
2021/06/08 07:30:03;;;;;;;0.00;0.00;;;20.60;99.90;;;;;;5064575;28;20033;-58
2021/06/08 07:33:10;;;;;;;0.00;0.00;;;20.90;99.90;;;;;;5072575;28;20582;-58
2021/06/08 07:35:44;;;;;;;0.00;0.00;;;21.10;99.90;;;;;;5043230;28;20049;-58
2021/06/08 07:38:17;;;;;;;0.00;0.00;;;21.20;99.90;;;;;;5073435;28;20024;-58
2021/06/08 07:40:55;;;;;;;0.00;0.00;;;21.30;99.90;;;;;;5056153;28;20450;-58
2021/06/08 07:43:25;;;;;;;0.00;0.00;;;21.20;99.90;;;;;;5073173;28;20439;-59
2021/06/08 07:45:55;;;;;;;0.00;0.00;;;21.10;99.90;;;;;;5089187;27;20032;-58
2021/06/08 07:48:28;;;;;;;0.00;0.00;;;21.30;99.90;;;;;;5057968;28;20051;-58
2021/06/08 07:50:57;;;;;;;0.00;0.00;;;21.40;99.90;;;;;;5073586;28;20075;-59
2021/06/08 07:53:25;;;;;;;0.00;0.00;;;21.40;99.90;;;;;;5088964;27;20032;-58
2021/06/08 07:55:55;;;;;;;0.00;0.00;;;21.40;99.90;;;;;;5073372;28;20039;-58
2021/06/08 07:58:25;;;;;;;0.00;0.00;;;21.50;99.90;;;;;;5073027;28;20040;-58
2021/06/08 08:00:52;;;;;;;0.00;0.00;;;21.60;99.90;;;;;;5072274;28;20427;-58
2021/06/08 08:03:28;;;;;;;0.00;0.00;;;21.30;99.90;;;;;;5074342;28;20469;-58
2021/06/08 08:06:03;;;;;;;0.00;0.00;;;21.40;99.90;;;;;;5073758;28;21169;-59
2021/06/08 08:08:34;;;;;;;0.00;0.00;;;21.40;99.90;;;;;;5073020;28;20522;-58
2021/06/08 08:11:04;;;;;;;0.00;0.00;;;21.40;99.90;;;;;;5073812;28;20035;-58
2021/06/08 08:13:31;;;;;;;0.00;0.00;;;21.30;99.90;;;;;;5073588;28;20050;-58
2021/06/08 08:16:02;;;;;;;0.00;0.00;;;21.30;99.90;;;;;;5073332;28;20035;-58
2021/06/08 08:18:33;;;;;;;0.00;0.00;;;21.30;99.90;;;;;;5072918;28;20086;-58
2021/06/08 08:21:01;;;;;;;0.00;0.00;;;21.20;99.90;;;;;;5073520;28;20116;-58
2021/06/08 08:23:30;;;;;;;0.00;0.00;;;21.20;99.90;;;;;;5072979;28;20094;-58
2021/06/08 08:26:00;;;;;;;0.00;0.00;;;21.30;99.90;;;;;;5073168;28;20583;-58
2021/06/08 08:28:27;;;;;;;0.00;0.00;;;21.30;99.90;;;;;;5063290;28;20127;-58
2021/06/08 08:30:53;;;;;;;0.00;0.00;;;21.50;99.90;;;;;;5072783;28;20044;-58
2021/06/08 08:33:22;;;;;;;0.00;0.00;;;21.50;99.90;;;;;;5073817;28;20032;-59
2021/06/08 08:35:47;;;;;;;0.00;0.00;;;21.70;99.90;;;;;;5071234;28;20054;-58
2021/06/08 08:38:14;;;;;;;0.00;0.00;;;21.80;99.90;;;;;;5072310;28;20490;-58
2021/06/08 08:40:41;;;;;;;0.00;0.00;;;21.80;99.90;;;;;;5072979;28;20050;-58
2021/06/08 08:43:08;;;;;;;0.00;0.00;;;21.90;99.90;;;;;;5072425;28;20044;-59
2021/06/08 08:45:36;;;;;;;0.00;0.00;;;21.90;99.90;;;;;;5072659;28;20036;-59
2021/06/08 08:48:02;;;;;;;0.00;0.00;;;22.00;99.90;;;;;;5071461;28;20040;-59
2021/06/08 08:50:30;;;;;;;0.00;0.00;;;22.10;99.80;;;;;;5071394;28;20711;-59
2021/06/08 08:53:04;;;;;;;0.00;0.00;;;22.00;99.20;;;;;;5072646;28;20032;-59
2021/06/08 08:55:32;;;;;;;0.00;0.00;;;22.00;97.20;;;;;;5072467;28;20025;-59
2021/06/08 08:58:04;;;;;;;0.00;0.00;;;22.10;97.50;;;;;;5073274;28;20043;-58
2021/06/08 09:00:31;;;;;;;0.00;0.00;;;22.10;98.10;;;;;;5072136;28;20040;-58
2021/06/08 09:03:05;;;;;;;0.00;0.00;;;22.30;98.10;;;;;;5088294;27;20040;-58
2021/06/08 09:05:35;;;;;;;0.00;0.00;;;22.40;98.50;;;;;;5063165;28;20077;-59
2021/06/08 09:08:02;;;;;;;0.00;0.00;;;22.60;98.70;;;;;;5074538;28;20089;-59
2021/06/08 09:10:33;;;;;;;0.00;0.00;;;22.80;96.70;;;;;;5071692;28;20086;-59
2021/06/08 09:12:59;;;;;;;0.00;0.00;;;22.90;96.20;;;;;;5072744;28;20024;-58
2021/06/08 09:15:24;;;;;;;0.00;0.00;;;22.90;95.00;;;;;;5072159;28;20025;-60
2021/06/08 09:17:58;;;;;;;0.00;0.00;;;23.00;94.20;;;;;;5062731;28;20456;-58
2021/06/08 09:20:27;;;;;;;0.00;0.00;;;22.80;93.80;;;;;;5072515;28;20117;-59
2021/06/08 09:22:55;;;;;;;0.00;0.00;;;22.90;95.20;;;;;;5072230;28;20595;-58
2021/06/08 09:28:20;;;;;;;0.00;0.00;;;23.00;94.30;;;;;;5072572;28;20437;-58
2021/06/08 09:30:52;;;;;;;0.22;0.22;;;22.80;94.30;;;;;;5071237;28;20106;-59
2021/06/08 09:33:27;;;;;;;0.00;0.00;;;22.60;94.00;;;;;;5072241;28;20042;-59
2021/06/08 09:36:05;;;;;;;0.00;0.00;;;22.50;94.40;;;;;;5071583;28;20562;-58
2021/06/08 09:38:44;;;;;;;0.00;0.00;;;22.60;94.80;;;;;;5072201;28;20472;-58
2021/06/08 09:41:19;;;;;;;0.00;0.00;;;22.80;95.60;;;;;;5072140;28;20042;-58
2021/06/08 09:44:00;;;;;;;0.00;0.00;;;22.80;94.80;;;;;;5071218;28;20032;-59
2021/06/08 09:46:29;;;;;;;0.00;0.00;;;22.80;92.50;;;;;;5056992;28;20464;-59
2021/06/08 09:48:57;;;;;;;0.00;0.00;;;22.70;92.00;;;;;;5071673;28;20024;-59
2021/06/08 09:51:27;;;;;;;0.00;0.00;;;22.70;90.70;;;;;;5071793;28;20030;-58
2021/06/08 09:53:53;;;;;;;0.00;0.00;;;22.80;91.10;;;;;;5072817;28;20035;-59
2021/06/08 09:56:20;;;;;;;0.00;0.00;;;23.00;91.40;;;;;;5072497;28;20028;-58
2021/06/08 09:58:51;;;;;;;0.00;0.00;;;23.10;90.80;;;;;;5058829;28;20028;-58
2021/06/08 10:01:27;;;;;;;0.00;0.00;;;23.20;89.30;;;;;;5086944;28;20078;-58
2021/06/08 10:04:01;;;;;;;0.00;0.00;;;23.20;89.00;;;;;;5055784;28;20113;-59
2021/06/08 10:06:37;;;;;;;0.00;0.00;;;23.20;90.00;;;;;;5071986;28;20024;-59
2021/06/08 10:09:12;;;;;;;0.00;0.00;;;23.30;88.10;;;;;;5070576;28;20063;-58
2021/06/08 10:11:42;;;;;;;0.00;0.00;;;23.30;86.80;;;;;;5073546;28;20696;-60
2021/06/08 10:14:17;;;;;;;0.00;0.00;;;23.50;86.90;;;;;;5071871;28;20029;-58
2021/06/08 10:16:43;;;;;;;0.00;0.00;;;23.60;88.30;;;;;;5071980;28;20043;-59
2021/06/08 10:19:10;;;;;;;0.00;0.00;;;23.80;85.60;;;;;;5071287;28;20028;-59
2021/06/08 10:21:48;;;;;;;0.00;0.00;;;24.00;84.00;;;;;;5071467;28;20065;-59
2021/06/08 10:24:25;;;;;;;0.00;0.00;;;24.30;84.60;;;;;;5071772;28;20463;-59
2021/06/08 10:26:53;;;;;;;0.00;0.00;;;24.60;84.40;;;;;;5071019;28;20028;-59
2021/06/08 10:29:27;;;;;;;0.00;0.00;;;24.70;84.30;;;;;;5061887;28;20054;-59
2021/06/08 10:31:54;;;;;;;0.00;0.00;;;24.60;82.50;;;;;;5070229;28;20111;-59
2021/06/08 10:34:20;;;;;;;0.00;0.00;;;24.30;85.50;;;;;;5053250;28;20028;-59
2021/06/08 10:36:50;;;;;;;0.00;0.00;;;24.40;84.90;;;;;;5070535;28;20028;-58
2021/06/08 10:39:24;;;;;;;0.00;0.00;;;24.50;85.80;;;;;;5071214;28;20056;-59
2021/06/08 10:41:51;;;;;;;0.00;0.00;;;24.60;81.70;;;;;;5071545;28;20158;-60
2021/06/08 10:44:25;;;;;;;0.00;0.00;;;24.60;83.60;;;;;;5070972;28;20020;-59
2021/06/08 10:46:55;;;;;;;0.00;0.00;;;24.50;82.70;;;;;;5053119;28;20032;-59
2021/06/08 10:49:40;;;;;;;0.00;0.00;;;24.40;80.80;;;;;;5071451;28;20028;-59
2021/06/08 10:52:12;;;;;;;0.00;0.00;;;24.30;80.40;;;;;;5071681;28;20595;-59
2021/06/08 10:54:46;;;;;;;0.00;0.00;;;24.20;81.20;;;;;;5071056;28;20032;-59
2021/06/08 10:57:16;;;;;;;0.00;0.00;;;24.20;81.90;;;;;;5071370;28;20589;-59
2021/06/08 10:59:51;;;;;;;0.00;0.00;;;24.20;80.20;;;;;;5071309;28;20081;-59
2021/06/08 11:02:43;;;;;;;0.00;0.00;;;24.20;80.60;;;;;;5070989;28;20035;-59
2021/06/08 11:05:09;;;;;;;0.00;0.00;;;24.50;79.90;;;;;;5057038;28;20467;-58
2021/06/08 11:07:51;;;;;;;0.00;0.00;;;24.20;78.30;;;;;;5086930;28;20108;-59
2021/06/08 11:10:26;;;;;;;0.00;0.00;;;24.30;79.80;;;;;;5070919;28;20024;-59
2021/06/08 11:13:11;;;;;;;0.00;0.00;;;24.50;79.00;;;;;;5074324;28;20024;-58
2021/06/08 11:15:44;;;;;;;0.00;0.00;;;24.60;80.10;;;;;;5075153;28;20094;-59
2021/06/08 11:18:25;;;;;;;0.00;0.00;;;24.70;79.10;;;;;;5074481;28;20996;-59
2021/06/08 11:20:57;;;;;;;0.00;0.00;;;24.90;80.00;;;;;;5060818;28;20076;-59
2021/06/08 11:23:33;;;;;;;0.00;0.00;;;24.90;83.90;;;;;;5074151;28;20468;-59
2021/06/08 11:26:00;;;;;;;0.00;0.00;;;25.10;79.30;;;;;;5089646;27;20455;-59
2021/06/08 11:28:52;;;;;;;0.00;0.00;;;25.40;78.20;;;;;;5090920;27;20163;-58
2021/06/08 11:31:25;;;;;;;0.00;0.00;;;25.70;74.80;;;;;;5075276;28;20024;-59
2021/06/08 11:34:04;;;;;;;0.00;0.00;;;25.80;77.00;;;;;;5073160;28;20024;-58
2021/06/08 11:36:34;;;;;;;0.00;0.00;;;26.10;74.20;;;;;;5057134;28;20046;-59
2021/06/08 11:39:24;;;;;;;0.00;0.00;;;26.10;72.10;;;;;;5060794;28;20020;-59
2021/06/08 11:42:01;;;;;;;0.00;0.00;;;26.00;72.50;;;;;;5074884;28;20032;-59
2021/06/08 11:44:27;;;;;;;0.10;0.10;;;26.20;71.60;;;;;;5075046;28;20550;-59
2021/06/08 11:47:00;;;;;;;0.00;0.00;;;26.50;72.70;;;;;;5075362;28;20106;-59
2021/06/08 11:49:28;;;;;;;0.00;0.00;;;26.70;70.70;;;;;;5074140;28;20633;-59
2021/06/08 11:52:17;;;;;;;0.00;0.00;;;27.00;68.80;;;;;;5073107;28;20043;-59
2021/06/08 11:54:48;;;;;;;0.08;0.08;;;27.00;67.50;;;;;;5073087;28;20158;-59
2021/06/08 11:57:34;;;;;;;0.00;0.00;;;26.90;67.60;;;;;;5073641;28;20041;-59
2021/06/08 12:00:00;;;;;;;0.00;0.00;;;26.60;68.10;;;;;;5073337;28;20032;-59
2021/06/08 12:02:39;;;;;;;0.00;0.00;;;26.40;70.60;;;;;;5073468;28;20102;-59
2021/06/08 12:05:18;;;;;;;0.00;0.00;;;26.40;71.10;;;;;;5073684;28;20020;-59
2021/06/08 12:07:53;;;;;;;0.00;0.00;;;25.90;72.10;;;;;;5054945;28;20036;-59
2021/06/08 12:10:32;;;;;;;0.00;0.00;;;25.50;70.30;;;;;;5073682;28;20017;-59
2021/06/08 12:13:00;;;;;;;0.00;0.00;;;25.40;70.80;;;;;;5073823;28;20028;-59
2021/06/08 12:15:37;;;;;;;0.00;0.00;;;25.40;72.80;;;;;;5074179;28;20036;-58
2021/06/08 12:18:11;;;;;;;0.00;0.00;;;25.60;71.20;;;;;;5074437;28;20032;-58
2021/06/08 12:20:40;;;;;;;0.00;0.00;;;25.50;70.00;;;;;;5062764;28;20107;-59
2021/06/08 12:23:07;;;;;;;0.00;0.00;;;25.70;72.50;;;;;;5072396;28;20449;-59
2021/06/08 12:25:35;;;;;;;0.00;0.00;;;25.90;69.00;;;;;;5073140;28;20138;-59
2021/06/08 12:28:08;;;;;;;0.00;0.00;;;25.80;68.80;;;;;;5073579;28;20104;-60
2021/06/08 12:30:33;;;;;;;0.00;0.00;;;26.10;70.20;;;;;;5072850;28;20032;-59
2021/06/08 12:33:04;;;;;;;0.08;0.08;;;26.60;70.10;;;;;;5052814;28;20047;-59
2021/06/08 12:35:31;;;;;;;0.00;0.00;;;27.80;64.30;;;;;;5073152;28;20090;-60
2021/06/08 12:38:15;;;;;;;0.00;0.00;;;28.10;60.70;;;;;;5072247;28;20035;-60
2021/06/08 12:40:42;;;;;;;0.00;0.00;;;28.40;59.80;;;;;;5073475;28;20066;-59
2021/06/08 12:43:10;;;;;;;0.00;0.00;;;27.90;59.80;;;;;;5072923;28;20031;-60
2021/06/08 12:45:36;;;;;;;0.00;0.00;;;28.00;60.80;;;;;;5072321;28;20609;-59
2021/06/08 12:48:17;;;;;;;0.10;0.10;;;27.90;59.60;;;;;;5058960;28;20020;-59
2021/06/08 12:50:46;;;;;;;0.00;0.00;;;28.10;60.60;;;;;;5072953;28;20467;-60
2021/06/08 12:53:11;;;;;;;0.00;0.00;;;28.10;59.70;;;;;;5072134;28;20028;-59
2021/06/08 12:55:37;;;;;;;0.03;0.03;;;28.00;59.80;;;;;;5056940;28;20036;-60
2021/06/08 12:58:04;;;;;;;0.00;0.00;;;28.10;58.80;;;;;;5063336;28;20031;-59
2021/06/08 13:00:34;;;;;;;0.00;0.00;;;27.60;60.30;;;;;;5072963;28;20036;-59
2021/06/08 13:03:03;;;;;;;0.00;0.00;;;27.80;62.20;;;;;;5072406;28;20063;-59
2021/06/08 13:05:35;;;;;;;0.00;0.00;;;27.90;61.90;;;;;;5055156;28;20114;-59
2021/06/08 13:08:04;;;;;;;0.00;0.00;;;28.00;61.70;;;;;;5072637;28;20106;-60
2021/06/08 13:10:36;;;;;;;0.00;0.00;;;28.70;59.20;;;;;;5072628;28;20905;-59